createdAt,value
2023-03-25T00:00:25.692Z,986.05
2023-03-25T00:05:29.885Z,986.06
2023-03-25T00:10:34.025Z,986.07
2023-03-25T00:15:38.223Z,985.85
2023-03-25T00:20:42.373Z,985.87
2023-03-25T00:25:46.526Z,986.11
2023-03-25T00:30:50.743Z,985.89
2023-03-25T00:35:54.874Z,985.96
2023-03-25T00:40:59.021Z,985.93
2023-03-25T00:46:01.300Z,985.93
2023-03-25T00:51:05.454Z,985.86
2023-03-25T00:56:07.727Z,985.90
2023-03-25T01:01:11.910Z,985.91
2023-03-25T01:06:16.041Z,985.79
2023-03-25T01:11:20.196Z,985.89
2023-03-25T01:16:24.447Z,985.76
2023-03-25T01:21:28.517Z,985.67
2023-03-25T01:26:32.685Z,985.78
2023-03-25T01:31:36.951Z,985.73
2023-03-25T01:36:40.990Z,985.68
2023-03-25T01:41:50.322Z,985.74
2023-03-25T01:46:49.653Z,985.55
2023-03-25T01:51:53.522Z,985.41
2023-03-25T01:56:57.948Z,985.45
2023-03-25T02:02:01.821Z,985.48
2023-03-25T02:07:05.982Z,985.44
2023-03-25T02:12:08.252Z,985.38
2023-03-25T02:17:12.401Z,985.40
2023-03-25T02:22:16.548Z,985.30
2023-03-25T02:27:20.736Z,985.21
2023-03-25T02:32:24.928Z,985.25
2023-03-25T02:37:29.058Z,985.23
2023-03-25T02:42:31.337Z,985.11
2023-03-25T02:47:35.506Z,985.21
2023-03-25T02:52:39.624Z,985.22
2023-03-25T02:57:43.816Z,985.31
2023-03-25T03:02:48.041Z,985.14
2023-03-25T03:07:52.183Z,985.18
2023-03-25T03:12:56.290Z,985.18
2023-03-25T03:18:00.571Z,985.12
2023-03-25T03:28:08.785Z,985.29
2023-03-25T03:33:12.977Z,985.24
2023-03-25T03:38:17.120Z,985.31
2023-03-25T03:43:21.275Z,985.41
2023-03-25T03:48:25.431Z,985.59
2023-03-25T03:53:29.593Z,985.63
2023-03-25T03:58:33.736Z,985.70
2023-03-25T04:03:37.965Z,985.77
2023-03-25T04:08:42.101Z,985.77
2023-03-25T04:13:46.238Z,985.81
2023-03-25T04:18:50.408Z,985.80
2023-03-25T04:23:54.592Z,985.79
2023-03-25T04:29:00.510Z,985.74
2023-03-25T04:34:01.017Z,985.61
2023-03-25T04:39:05.212Z,985.60
2023-03-25T04:44:07.457Z,985.52
2023-03-25T04:49:11.579Z,985.52
2023-03-25T04:54:18.230Z,985.60
2023-03-25T04:59:18.030Z,985.72
2023-03-25T05:04:22.214Z,985.69
2023-03-25T05:09:26.391Z,985.49
2023-03-25T05:14:30.500Z,985.62
2023-03-25T05:19:34.698Z,985.59
2023-03-25T05:24:38.848Z,985.62
2023-03-25T05:29:43.006Z,985.61
2023-03-25T05:34:47.206Z,985.78
2023-03-25T05:39:51.348Z,985.87
2023-03-25T05:44:55.470Z,985.99
2023-03-25T05:49:59.670Z,985.96
2023-03-25T05:55:03.777Z,985.86
2023-03-25T06:00:07.974Z,986.01
2023-03-25T06:05:12.151Z,985.79
2023-03-25T06:10:16.324Z,985.88
2023-03-25T06:15:20.438Z,985.95
2023-03-25T06:20:24.622Z,985.96
2023-03-25T06:25:28.824Z,985.91
2023-03-25T06:30:32.930Z,985.97
2023-03-25T06:35:37.146Z,985.87
2023-03-25T06:40:41.279Z,986.06
2023-03-25T06:45:43.555Z,986.03
2023-03-25T06:50:47.761Z,986.11
2023-03-25T06:55:50.231Z,986.07
2023-03-25T07:00:54.142Z,986.16
2023-03-25T07:05:58.319Z,986.20
2023-03-25T07:11:02.462Z,986.22
2023-03-25T07:16:06.670Z,986.36
2023-03-25T07:21:10.778Z,986.30
2023-03-25T07:26:14.935Z,986.27
2023-03-25T07:31:19.147Z,986.29
2023-03-25T07:36:23.254Z,986.16
2023-03-25T07:41:27.413Z,986.22
2023-03-25T07:46:31.878Z,986.19
2023-03-25T07:51:35.774Z,986.18
2023-03-25T07:56:39.975Z,986.26
2023-03-25T08:01:44.114Z,986.18
2023-03-25T08:06:48.268Z,986.18
2023-03-25T08:11:52.395Z,986.34
2023-03-25T08:16:56.587Z,986.39
2023-03-25T08:22:00.738Z,986.39
2023-03-25T08:27:14.717Z,986.42
2023-03-25T08:32:09.037Z,986.26
2023-03-25T08:37:13.200Z,986.15
2023-03-25T08:42:15.476Z,985.86
2023-03-25T08:47:19.642Z,985.86
2023-03-25T08:52:23.821Z,985.62
2023-03-25T08:57:26.055Z,985.67
2023-03-25T09:02:30.271Z,985.59
2023-03-25T09:07:34.440Z,985.54
2023-03-25T09:12:38.546Z,985.57
2023-03-25T09:17:42.819Z,985.47
2023-03-25T09:22:47.049Z,985.49
2023-03-25T09:27:51.051Z,985.49
2023-03-25T09:32:55.303Z,985.33
2023-03-25T09:37:59.329Z,985.31
2023-03-25T09:43:03.554Z,985.15
2023-03-25T09:48:07.710Z,985.21
2023-03-25T09:53:11.847Z,985.72
2023-03-25T09:58:16.020Z,985.90
2023-03-25T10:03:20.206Z,985.83
2023-03-25T10:08:24.364Z,985.73
2023-03-25T10:13:28.479Z,985.60
2023-03-25T10:18:32.663Z,985.39
2023-03-25T10:23:36.814Z,985.19
2023-03-25T10:28:40.962Z,985.03
2023-03-25T10:33:45.165Z,985.05
2023-03-25T10:38:49.306Z,984.81
2023-03-25T10:43:51.552Z,984.68
2023-03-25T10:48:55.730Z,984.46
2023-03-25T10:53:59.902Z,984.35
2023-03-25T10:59:04.051Z,984.34
2023-03-25T11:04:08.200Z,984.16
2023-03-25T11:09:12.366Z,984.31
2023-03-25T11:14:16.554Z,984.36
2023-03-25T11:19:21.128Z,984.95
2023-03-25T11:24:24.859Z,985.79
2023-03-25T11:29:29.037Z,986.35
2023-03-25T11:34:33.225Z,986.51
2023-03-25T11:39:37.357Z,986.59
2023-03-25T11:44:41.497Z,986.45
2023-03-25T11:49:45.638Z,986.48
2023-03-25T11:54:49.833Z,986.48
2023-03-25T11:59:53.966Z,986.70
2023-03-25T12:04:58.161Z,986.45
2023-03-25T12:10:02.349Z,986.46
2023-03-25T12:15:06.487Z,986.51
2023-03-25T12:20:10.646Z,986.54
2023-03-25T12:25:14.776Z,986.33
2023-03-25T12:30:17.042Z,986.47
2023-03-25T12:35:21.253Z,986.17
2023-03-25T12:40:23.517Z,986.12
2023-03-25T12:45:27.656Z,985.85
2023-03-25T12:50:33.688Z,985.56
2023-03-25T12:55:36.017Z,985.07
2023-03-25T13:00:40.181Z,984.89
2023-03-25T13:05:44.320Z,984.61
2023-03-25T13:10:48.574Z,984.51
2023-03-25T13:15:52.635Z,984.15
2023-03-25T13:20:56.786Z,984.03
2023-03-25T13:26:00.947Z,983.94
2023-03-25T13:31:05.091Z,984.03
2023-03-25T13:36:09.284Z,984.06
2023-03-25T13:41:13.404Z,984.66
2023-03-25T13:46:25.678Z,985.45
2023-03-25T13:51:21.754Z,985.79
2023-03-25T13:56:25.984Z,985.76
2023-03-25T14:01:30.099Z,985.71
2023-03-25T14:06:34.211Z,985.43
2023-03-25T14:11:38.367Z,985.32
2023-03-25T14:16:42.554Z,985.03
2023-03-25T14:21:46.687Z,984.90
2023-03-25T14:26:48.982Z,985.16
2023-03-25T14:31:53.316Z,985.30
2023-03-25T14:36:57.329Z,985.66
2023-03-25T14:42:01.469Z,986.14
2023-03-25T14:47:05.603Z,986.52
2023-03-25T14:52:09.766Z,986.78
2023-03-25T14:57:12.159Z,987.22
2023-03-25T15:02:16.202Z,987.13
2023-03-25T15:07:20.388Z,986.86
2023-03-25T15:12:24.532Z,986.81
2023-03-25T15:17:28.708Z,986.88
2023-03-25T15:22:32.898Z,986.79
2023-03-25T15:27:37.000Z,986.80
2023-03-25T15:32:41.193Z,986.76
2023-03-25T15:37:46.656Z,986.83
2023-03-25T15:42:49.603Z,986.82
2023-03-25T15:47:53.725Z,986.54
2023-03-25T15:52:57.866Z,986.62
2023-03-25T15:58:02.076Z,986.56
2023-03-25T16:03:06.340Z,986.62
2023-03-25T16:08:10.398Z,986.70
2023-03-25T16:13:14.481Z,986.73
2023-03-25T16:18:18.646Z,986.92
2023-03-25T16:23:22.790Z,986.74
2023-03-25T16:28:26.983Z,986.36
2023-03-25T16:33:31.117Z,985.86
2023-03-25T16:38:35.265Z,986.32
2023-03-25T16:43:37.601Z,986.53
2023-03-25T16:48:41.716Z,986.77
2023-03-25T16:54:38.077Z,986.89
2023-03-25T16:59:41.998Z,987.01
2023-03-25T17:04:46.153Z,987.09
2023-03-25T17:09:50.348Z,987.16
2023-03-25T17:14:54.508Z,987.21
2023-03-25T17:19:58.664Z,987.20
2023-03-25T17:25:02.852Z,987.04
2023-03-25T17:30:07.000Z,987.26
2023-03-25T17:35:11.151Z,987.30
2023-03-25T17:40:15.332Z,987.30
2023-03-25T17:45:19.481Z,987.34
2023-03-25T17:50:23.652Z,987.31
2023-03-25T17:55:27.819Z,987.76
2023-03-25T18:00:31.948Z,987.86
2023-03-25T18:05:36.195Z,987.98
2023-03-25T18:10:40.267Z,988.06
2023-03-25T18:15:44.472Z,988.06
2023-03-25T18:20:48.616Z,988.07
2023-03-25T18:25:52.803Z,988.15
2023-03-25T18:30:55.350Z,988.04
2023-03-25T18:35:59.199Z,988.25
2023-03-25T18:41:03.376Z,988.12
2023-03-25T18:46:07.526Z,988.16
2023-03-25T18:51:11.675Z,988.11
2023-03-25T18:56:15.855Z,988.13
2023-03-25T19:01:20.044Z,988.19
2023-03-25T19:06:24.128Z,988.27
2023-03-25T19:11:28.334Z,988.26
2023-03-25T19:16:32.554Z,988.24
2023-03-25T19:21:36.716Z,988.19
2023-03-25T19:26:40.839Z,988.11
2023-03-25T19:31:44.960Z,988.17
2023-03-25T19:36:49.175Z,988.23
2023-03-25T19:41:53.290Z,988.34
2023-03-25T19:46:57.474Z,988.50
2023-03-25T19:52:01.637Z,988.65
2023-03-25T19:57:05.819Z,988.79
2023-03-25T20:02:09.979Z,989.15
2023-03-25T20:07:14.115Z,989.51
2023-03-25T20:12:18.266Z,989.43
2023-03-25T20:17:20.567Z,989.17
2023-03-25T20:22:25.161Z,988.96
2023-03-25T20:27:26.965Z,988.84
2023-03-25T20:32:39.725Z,988.74
2023-03-25T20:37:35.301Z,988.71
2023-03-25T20:42:39.470Z,988.67
2023-03-25T20:47:43.623Z,988.72
2023-03-25T20:52:49.912Z,988.79
2023-03-25T20:57:51.984Z,988.91
2023-03-25T21:02:56.166Z,989.01
2023-03-25T21:08:00.287Z,989.07
2023-03-25T21:13:04.404Z,989.20
2023-03-25T21:18:08.625Z,989.16
2023-03-25T21:23:12.728Z,989.22
2023-03-25T21:28:18.138Z,989.09
2023-03-25T21:33:21.103Z,989.16
2023-03-25T21:38:29.059Z,989.23
2023-03-25T21:43:29.395Z,989.28
2023-03-25T21:48:33.550Z,989.08
2023-03-25T21:53:37.756Z,988.78
2023-03-25T21:58:41.897Z,988.81
2023-03-25T22:03:46.035Z,988.63
2023-03-25T22:08:50.216Z,988.67
2023-03-25T22:13:52.487Z,988.82
2023-03-25T22:18:56.639Z,988.86
2023-03-25T22:23:58.909Z,988.83
2023-03-25T22:29:03.060Z,988.89
2023-03-25T22:34:07.250Z,988.88
2023-03-25T22:39:11.396Z,988.79
2023-03-25T22:44:15.582Z,988.91
2023-03-25T22:49:19.723Z,988.71
2023-03-25T22:54:23.920Z,988.63
2023-03-25T22:59:28.016Z,988.58
2023-03-25T23:04:32.194Z,988.65
2023-03-25T23:09:36.379Z,988.70
2023-03-25T23:14:40.519Z,988.75
2023-03-25T23:19:44.725Z,988.75
2023-03-25T23:24:48.839Z,988.66
2023-03-25T23:29:53.000Z,988.66
2023-03-25T23:34:57.166Z,988.65
2023-03-25T23:40:01.378Z,988.62
2023-03-25T23:45:05.507Z,988.52
2023-03-25T23:50:09.784Z,988.46
2023-03-25T23:55:13.841Z,988.42
